Watson, Oklahoma
Current Conditions -  °F | °C
As of 3:55 PM on Saturday 25 Oct 2014 (Local Time) from KMEZ Reporting Station
Clear Clear  
Wind Chill: 86°   Ceiling: Unl
Heat Index: 87°   Visibility: 10mi
Dew Point: 63°   Wind: 6mph
Humidity: 45%   Direction: 250°WSW
Pressure: 30.08"   Gusts: NA
Location:  34.44°N, 94.56°W
Report Text: KMEZ 252055Z AUTO 25005KT 10SM CLR 30/17 A3008 RMK AO2
Loading
Personal Weather Stations






























Interactive Weather Map
Tropical Storm Tracking
New forecast layout! Learn more

10-Day Weather Forecast

Advertisements
Track Severe Weather on mobile